Time;durP1;ratioP1;P1;durP2;ratioP2;P2;SDS_P1;SDS_P2;PMS_P1;PMS_P2;Temp;Humidity;BMP_temperature;BMP_pressure;BME280_temperature;BME280_humidity;BME280_pressure;Samples;Min_cycle;Max_cycle;Signal;HPM_P1;HPM_P2
2023/02/13 00:01:38;;;;;;;;;;;27.20;98.50;;;;;;5083534;28;19908;-64
2023/02/13 00:04:05;;;;;;;;;;;27.10;98.60;;;;;;5083361;28;19905;-65
2023/02/13 00:06:34;;;;;;;;;;;26.80;98.20;;;;;;5075711;28;20418;-64
2023/02/13 00:09:01;;;;;;;;;;;26.60;98.20;;;;;;5080295;28;20344;-60
2023/02/13 00:11:27;;;;;;;;;;;26.60;98.80;;;;;;5076800;28;19915;-64
2023/02/13 00:13:54;;;;;;;;;;;26.30;99.30;;;;;;5076252;28;19987;-60
2023/02/13 00:16:20;;;;;;;;;;;26.30;99.20;;;;;;5076978;28;19973;-64
2023/02/13 00:18:46;;;;;;;;;;;26.60;98.70;;;;;;5081086;28;19915;-61
2023/02/13 00:21:13;;;;;;;;;;;26.50;98.70;;;;;;5080269;28;19908;-61
2023/02/13 00:23:39;;;;;;;;;;;26.30;98.90;;;;;;5081535;28;19947;-60
2023/02/13 00:26:07;;;;;;;;;;;26.10;98.80;;;;;;5073504;28;19924;-64
2023/02/13 00:28:34;;;;;;;;;;;25.80;99.00;;;;;;5077840;28;20424;-61
2023/02/13 00:31:05;;;;;;;;;;;25.60;99.50;;;;;;5075204;28;20058;-61
2023/02/13 00:33:31;;;;;;;;;;;25.40;99.90;;;;;;5077250;28;19912;-61
2023/02/13 00:36:07;;;;;;;;;;;25.30;99.90;;;;;;5080196;28;19912;-65
2023/02/13 00:38:34;;;;;;;;;;;25.20;99.90;;;;;;5058213;28;19916;-65
2023/02/13 00:41:00;;;;;;;;;;;25.30;99.90;;;;;;5074834;28;19962;-61
2023/02/13 00:43:26;;;;;;;;;;;25.70;99.80;;;;;;5080595;28;19961;-61
2023/02/13 00:45:53;;;;;;;;;;;25.90;99.50;;;;;;5078858;28;20437;-60
2023/02/13 00:48:19;;;;;;;;;;;25.90;99.50;;;;;;5077204;28;19916;-61
2023/02/13 00:50:46;;;;;;;;;;;26.10;99.60;;;;;;5078525;28;19904;-61
2023/02/13 00:53:13;;;;;;;;;;;26.30;98.40;;;;;;5074445;28;19959;-60
2023/02/13 00:55:39;;;;;;;;;;;26.10;98.70;;;;;;5070629;28;19912;-63
2023/02/13 00:58:06;;;;;;;;;;;26.20;98.90;;;;;;5073771;28;20310;-63
2023/02/13 01:00:32;;;;;;;;;;;26.10;99.10;;;;;;5070072;28;20228;-60
2023/02/13 01:02:59;;;;;;;;;;;26.10;98.80;;;;;;5075418;28;20289;-63
2023/02/13 01:05:27;;;;;;;;;;;26.30;99.20;;;;;;5075594;28;19927;-63
2023/02/13 01:07:53;;;;;;;;;;;26.40;98.80;;;;;;5075657;28;20046;-61
2023/02/13 01:10:20;;;;;;;;;;;26.30;98.50;;;;;;5079922;28;19915;-64
2023/02/13 01:12:46;;;;;;;;;;;25.80;99.00;;;;;;5085222;28;20261;-60
2023/02/13 01:15:12;;;;;;;;;;;25.50;99.20;;;;;;5081923;28;19916;-61
2023/02/13 01:17:39;;;;;;;;;;;25.50;99.90;;;;;;5080065;28;20347;-64
2023/02/13 01:20:09;;;;;;;;;;;26.00;99.60;;;;;;5079218;28;19965;-63
2023/02/13 01:22:36;;;;;;;;;;;26.90;98.30;;;;;;5074885;28;19915;-64
2023/02/13 01:25:03;;;;;;;;;;;27.10;98.30;;;;;;5077107;28;20364;-64
2023/02/13 01:27:29;;;;;;;;;;;27.20;97.90;;;;;;5076179;28;19934;-65
2023/02/13 01:29:56;;;;;;;;;;;27.00;98.30;;;;;;5074913;28;19912;-62
2023/02/13 01:32:22;;;;;;;;;;;27.10;97.80;;;;;;5074975;28;19916;-62
2023/02/13 01:34:48;;;;;;;;;;;27.30;97.90;;;;;;5076987;28;19919;-62
2023/02/13 01:37:15;;;;;;;;;;;26.90;98.00;;;;;;5078199;28;20018;-62
2023/02/13 01:39:41;;;;;;;;;;;26.50;98.60;;;;;;5077585;28;19955;-62
2023/02/13 01:42:15;;;;;;;;;;;26.30;98.70;;;;;;5073141;28;19951;-62
2023/02/13 01:44:44;;;;;;;;;;;26.10;98.50;;;;;;5070414;28;20542;-64
2023/02/13 01:47:12;;;;;;;;;;;25.90;99.10;;;;;;5074156;28;20291;-65
2023/02/13 01:49:39;;;;;;;;;;;25.80;99.50;;;;;;5072539;28;19918;-63
2023/02/13 01:52:06;;;;;;;;;;;25.60;99.40;;;;;;5080780;28;19908;-63
2023/02/13 01:54:33;;;;;;;;;;;25.40;99.90;;;;;;5079373;28;19909;-63
2023/02/13 01:57:04;;;;;;;;;;;25.40;99.90;;;;;;5078508;28;19908;-62
2023/02/13 01:59:34;;;;;;;;;;;25.40;99.90;;;;;;5076915;28;20386;-62
2023/02/13 02:02:00;;;;;;;;;;;25.40;99.80;;;;;;5074715;28;19912;-63
2023/02/13 02:04:29;;;;;;;;;;;25.20;99.90;;;;;;5082278;28;19912;-64
2023/02/13 02:06:57;;;;;;;;;;;25.30;99.90;;;;;;5078429;28;20327;-63
2023/02/13 02:09:33;;;;;;;;;;;25.50;99.70;;;;;;5077460;28;19965;-62
2023/02/13 02:12:02;;;;;;;;;;;25.70;99.20;;;;;;5075487;28;19904;-63
2023/02/13 02:14:29;;;;;;;;;;;26.00;98.90;;;;;;5074996;28;19948;-63
2023/02/13 02:16:55;;;;;;;;;;;26.20;98.90;;;;;;5079349;28;20381;-65
2023/02/13 02:19:22;;;;;;;;;;;26.10;99.10;;;;;;5078354;28;19908;-65
2023/02/13 02:22:12;;;;;;;;;;;26.10;99.20;;;;;;5082275;28;19904;-65
2023/02/13 02:24:51;;;;;;;;;;;26.10;99.20;;;;;;5074551;28;20364;-65
2023/02/13 02:27:27;;;;;;;;;;;26.00;99.20;;;;;;5080213;28;19913;-61
2023/02/13 02:30:05;;;;;;;;;;;26.10;99.50;;;;;;5082078;28;20003;-64
2023/02/13 02:32:50;;;;;;;;;;;26.20;98.90;;;;;;5083763;28;20397;-64
2023/02/13 02:35:29;;;;;;;;;;;26.70;98.10;;;;;;5081202;28;20288;-61
2023/02/13 02:38:00;;;;;;;;;;;26.90;98.10;;;;;;5074459;28;20274;-61
2023/02/13 02:40:27;;;;;;;;;;;26.90;98.00;;;;;;5085389;28;20441;-61
2023/02/13 02:42:56;;;;;;;;;;;27.10;98.10;;;;;;5081061;28;19909;-60
2023/02/13 02:45:26;;;;;;;;;;;27.50;98.00;;;;;;5077599;28;19912;-61
2023/02/13 02:50:43;;;;;;;;;;;28.30;96.80;;;;;;5074336;28;19916;-61
2023/02/13 02:53:28;;;;;;;;;;;28.20;96.60;;;;;;5078690;28;19908;-64
2023/02/13 02:56:00;;;;;;;;;;;27.50;97.40;;;;;;5073924;28;20398;-66
2023/02/13 03:06:47;;;;;;;;;;;26.70;98.20;;;;;;5084856;28;20280;-63
2023/02/13 03:14:58;;;;;;;;;;;27.30;97.80;;;;;;5089726;28;20041;-65
2023/02/13 03:23:07;;;;;;;;;;;27.60;97.10;;;;;;5088649;28;20290;-64
2023/02/13 03:25:43;;;;;;;;;;;27.30;98.00;;;;;;5089556;28;20287;-65
2023/02/13 03:31:13;;;;;;;;;;;27.00;97.40;;;;;;5089263;28;19961;-61
2023/02/13 03:33:42;;;;;;;;;;;27.00;98.00;;;;;;5090055;28;19912;-61
2023/02/13 03:39:25;;;;;;;;;;;27.10;97.20;;;;;;4987341;28;19937;-60
2023/02/13 03:42:04;;;;;;;;;;;26.60;98.10;;;;;;4984792;28;19992;-62
2023/02/13 03:45:51;;;;;;;;;;;26.60;97.80;;;;;;4984786;28;19948;-63
2023/02/13 03:47:40;;;;;;;;;;;26.20;98.20;;;;;;4986474;28;19913;-61
2023/02/13 03:50:07;;;;;;;;;;;26.10;98.40;;;;;;4990456;28;19913;-64
2023/02/13 03:53:03;;;;;;;;;;;26.30;98.30;;;;;;4987571;28;20417;-62
2023/02/13 04:01:05;;;;;;;;;;;28.00;97.20;;;;;;4954368;28;20039;-61
2023/02/13 04:03:35;;;;;;;;;;;28.00;96.30;;;;;;4948663;28;20063;-64
2023/02/13 04:06:07;;;;;;;;;;;28.10;96.50;;;;;;4947276;28;19961;-59
2023/02/13 04:08:33;;;;;;;;;;;28.60;96.40;;;;;;4950808;28;20009;-64
2023/02/13 04:11:06;;;;;;;;;;;28.90;96.00;;;;;;4947840;29;19911;-62
2023/02/13 04:13:34;;;;;;;;;;;29.10;95.50;;;;;;4945821;29;20425;-62
2023/02/13 04:16:12;;;;;;;;;;;29.40;94.90;;;;;;4967689;28;20000;-62
2023/02/13 04:18:39;;;;;;;;;;;29.90;94.10;;;;;;4985963;28;19921;-63
2023/02/13 04:21:06;;;;;;;;;;;30.10;94.20;;;;;;4977773;28;19909;-62
2023/02/13 04:23:33;;;;;;;;;;;30.00;94.30;;;;;;4980651;28;19914;-64
2023/02/13 04:26:01;;;;;;;;;;;29.80;94.60;;;;;;4985054;28;20052;-64
2023/02/13 04:28:28;;;;;;;;;;;29.80;94.10;;;;;;4981214;28;19913;-62
2023/02/13 04:30:54;;;;;;;;;;;29.30;94.10;;;;;;4984914;28;19910;-65
2023/02/13 04:33:20;;;;;;;;;;;28.80;95.30;;;;;;5061996;28;20329;-65
2023/02/13 04:35:47;;;;;;;;;;;28.80;95.30;;;;;;5063824;28;19912;-65
2023/02/13 04:38:13;;;;;;;;;;;29.10;95.00;;;;;;5059830;28;20605;-65
2023/02/13 04:40:39;;;;;;;;;;;29.00;94.60;;;;;;5066793;28;19913;-63
2023/02/13 04:43:06;;;;;;;;;;;28.70;95.00;;;;;;5060826;28;19965;-65
2023/02/13 04:45:32;;;;;;;;;;;28.60;94.80;;;;;;5066735;28;20379;-63
2023/02/13 04:47:58;;;;;;;;;;;28.50;95.70;;;;;;5059642;28;19905;-66
2023/02/13 04:50:25;;;;;;;;;;;28.30;95.70;;;;;;5067480;28;19915;-61
2023/02/13 04:52:55;;;;;;;;;;;28.10;95.80;;;;;;5060406;28;19908;-61
2023/02/13 04:55:25;;;;;;;;;;;28.00;95.50;;;;;;5066500;28;20383;-67
2023/02/13 04:57:52;;;;;;;;;;;27.60;96.20;;;;;;5067316;28;20365;-67
2023/02/13 05:00:20;;;;;;;;;;;27.30;96.00;;;;;;5078958;28;19927;-60
2023/02/13 05:02:46;;;;;;;;;;;27.00;96.70;;;;;;5078264;28;19908;-64
2023/02/13 05:05:12;;;;;;;;;;;27.00;97.70;;;;;;5074665;28;20530;-60
2023/02/13 05:07:40;;;;;;;;;;;27.10;96.90;;;;;;5074827;28;19953;-64
2023/02/13 05:10:06;;;;;;;;;;;27.20;96.90;;;;;;5073109;28;19920;-66
2023/02/13 05:12:33;;;;;;;;;;;27.10;96.70;;;;;;5078480;28;20289;-66
2023/02/13 05:14:59;;;;;;;;;;;26.90;97.50;;;;;;5086026;28;19912;-66
2023/02/13 05:17:26;;;;;;;;;;;26.60;97.40;;;;;;5074512;28;20323;-67
2023/02/13 05:19:52;;;;;;;;;;;26.80;97.50;;;;;;5079314;28;19926;-66
2023/02/13 05:25:03;;;;;;;;;;;26.80;97.40;;;;;;5082547;28;20355;-61
2023/02/13 05:27:29;;;;;;;;;;;26.80;97.50;;;;;;5074588;28;19970;-64
2023/02/13 05:29:56;;;;;;;;;;;26.60;97.40;;;;;;5077584;28;19916;-65
2023/02/13 05:32:22;;;;;;;;;;;26.30;97.60;;;;;;5076356;28;20291;-61
2023/02/13 05:34:48;;;;;;;;;;;26.30;98.00;;;;;;5079263;28;19966;-61
2023/02/13 05:37:15;;;;;;;;;;;26.40;97.90;;;;;;5055672;28;19923;-65
2023/02/13 05:39:41;;;;;;;;;;;26.50;97.70;;;;;;5079963;28;20374;-61
2023/02/13 05:42:09;;;;;;;;;;;26.30;97.80;;;;;;5074077;28;19931;-62
2023/02/13 05:44:35;;;;;;;;;;;26.20;98.30;;;;;;5075989;28;20360;-61
2023/02/13 05:47:02;;;;;;;;;;;26.00;98.30;;;;;;5075003;28;19912;-61
2023/02/13 05:49:29;;;;;;;;;;;26.10;98.40;;;;;;5078311;28;20352;-64
2023/02/13 05:51:55;;;;;;;;;;;26.20;98.50;;;;;;5073879;28;20007;-63
2023/02/13 05:54:22;;;;;;;;;;;26.10;98.30;;;;;;5077330;28;19916;-65
2023/02/13 05:56:48;;;;;;;;;;;26.00;98.40;;;;;;5071448;28;19965;-64
2023/02/13 05:59:15;;;;;;;;;;;26.00;98.40;;;;;;5085888;28;20001;-60
2023/02/13 06:01:41;;;;;;;;;;;26.00;98.50;;;;;;5089576;28;19919;-60
2023/02/13 06:04:07;;;;;;;;;;;25.70;98.70;;;;;;5083814;28;19966;-65
2023/02/13 06:06:34;;;;;;;;;;;25.60;99.70;;;;;;5070989;28;19920;-63
2023/02/13 06:09:00;;;;;;;;;;;25.50;99.30;;;;;;5081619;28;19966;-65
2023/02/13 06:11:26;;;;;;;;;;;25.40;99.30;;;;;;5092018;28;20022;-65
2023/02/13 06:13:53;;;;;;;;;;;25.30;99.70;;;;;;5077045;28;20305;-61
2023/02/13 06:16:19;;;;;;;;;;;25.30;99.30;;;;;;5070899;28;19916;-66
2023/02/13 06:18:46;;;;;;;;;;;25.20;99.90;;;;;;5082219;28;19954;-67
2023/02/13 06:21:12;;;;;;;;;;;25.20;99.90;;;;;;5089086;28;20399;-61
2023/02/13 06:23:38;;;;;;;;;;;25.20;99.70;;;;;;5083494;28;20209;-66
2023/02/13 06:26:06;;;;;;;;;;;25.00;99.90;;;;;;5070210;28;19966;-61
2023/02/13 06:28:32;;;;;;;;;;;25.00;99.90;;;;;;5076644;28;19908;-61
2023/02/13 06:30:59;;;;;;;;;;;25.00;99.90;;;;;;5084075;28;19937;-63
2023/02/13 06:33:25;;;;;;;;;;;25.20;99.90;;;;;;5082592;28;19943;-67
2023/02/13 06:35:52;;;;;;;;;;;25.20;99.90;;;;;;5076269;28;19912;-61
2023/02/13 06:38:18;;;;;;;;;;;25.20;99.90;;;;;;5075568;28;19919;-64
2023/02/13 06:40:45;;;;;;;;;;;25.10;99.90;;;;;;5085645;28;19912;-61
2023/02/13 06:43:12;;;;;;;;;;;24.70;99.90;;;;;;5086145;28;19923;-65
2023/02/13 06:45:38;;;;;;;;;;;24.50;99.90;;;;;;5075258;28;20344;-65
2023/02/13 06:48:05;;;;;;;;;;;24.40;99.90;;;;;;5074177;28;20334;-60
2023/02/13 06:50:32;;;;;;;;;;;24.20;99.90;;;;;;5088928;28;19915;-66
2023/02/13 06:52:58;;;;;;;;;;;24.10;99.90;;;;;;5089428;28;19981;-61
2023/02/13 06:55:25;;;;;;;;;;;23.90;99.90;;;;;;5077866;28;19916;-60
2023/02/13 06:57:51;;;;;;;;;;;23.90;99.90;;;;;;5076113;28;19912;-67
2023/02/13 07:00:18;;;;;;;;;;;23.70;99.90;;;;;;5077646;28;19922;-61
2023/02/13 07:02:45;;;;;;;;;;;23.50;99.90;;;;;;5075468;28;19912;-69
2023/02/13 07:05:12;;;;;;;;;;;23.40;99.90;;;;;;5076372;28;19973;-62
2023/02/13 07:07:39;;;;;;;;;;;23.40;99.90;;;;;;5073083;28;20344;-61
2023/02/13 07:10:07;;;;;;;;;;;23.50;99.90;;;;;;5076350;28;19929;-65
2023/02/13 07:12:35;;;;;;;;;;;23.20;99.90;;;;;;5075524;28;19972;-59
2023/02/13 07:15:02;;;;;;;;;;;23.10;99.90;;;;;;5074684;28;19912;-59
2023/02/13 07:17:28;;;;;;;;;;;23.00;99.90;;;;;;5073634;28;20313;-68
2023/02/13 07:19:55;;;;;;;;;;;23.00;99.90;;;;;;5063266;28;20277;-60
2023/02/13 07:22:21;;;;;;;;;;;23.00;99.90;;;;;;5074800;28;20208;-68
2023/02/13 07:24:48;;;;;;;;;;;22.80;99.90;;;;;;5075127;28;19916;-60
2023/02/13 07:27:14;;;;;;;;;;;22.60;99.90;;;;;;5073131;28;19994;-59
2023/02/13 07:29:40;;;;;;;;;;;22.60;99.90;;;;;;5070044;28;20772;-61
2023/02/13 07:32:07;;;;;;;;;;;22.60;99.90;;;;;;5074040;28;19912;-61
2023/02/13 07:34:34;;;;;;;;;;;22.70;99.90;;;;;;5074938;28;19920;-68
2023/02/13 07:37:00;;;;;;;;;;;22.60;99.90;;;;;;5074833;28;19916;-61
2023/02/13 07:39:26;;;;;;;;;;;22.50;99.90;;;;;;5072430;28;19947;-69
2023/02/13 07:41:53;;;;;;;;;;;22.40;99.90;;;;;;5076069;28;19912;-60
2023/02/13 07:44:19;;;;;;;;;;;22.40;99.90;;;;;;5073929;28;20283;-68
2023/02/13 07:46:45;;;;;;;;;;;22.50;99.90;;;;;;5071535;28;20197;-61
2023/02/13 07:49:12;;;;;;;;;;;22.50;99.90;;;;;;5071840;28;19912;-68
2023/02/13 07:51:38;;;;;;;;;;;22.60;99.90;;;;;;5071387;28;20372;-61
2023/02/13 07:54:05;;;;;;;;;;;22.50;99.90;;;;;;5072072;28;20000;-60
2023/02/13 07:56:31;;;;;;;;;;;22.50;99.90;;;;;;5070145;28;19912;-61
2023/02/13 07:58:57;;;;;;;;;;;22.60;99.90;;;;;;5075074;28;19959;-61
2023/02/13 08:01:24;;;;;;;;;;;22.60;99.90;;;;;;5072331;28;19915;-60
2023/02/13 08:03:50;;;;;;;;;;;22.70;99.90;;;;;;5074157;28;19922;-61
2023/02/13 08:06:18;;;;;;;;;;;22.70;99.90;;;;;;5079507;28;19920;-60
2023/02/13 08:08:44;;;;;;;;;;;22.60;99.90;;;;;;5073001;28;19908;-60
2023/02/13 08:14:07;;;;;;;;;;;22.50;99.90;;;;;;5074954;28;20061;-68
2023/02/13 08:16:34;;;;;;;;;;;22.50;99.90;;;;;;5079821;28;20368;-61
2023/02/13 08:19:00;;;;;;;;;;;22.50;99.90;;;;;;5073225;28;19912;-69
2023/02/13 08:21:26;;;;;;;;;;;22.40;99.90;;;;;;5080766;28;19985;-64
2023/02/13 08:23:53;;;;;;;;;;;22.40;99.90;;;;;;5078003;28;20509;-66
2023/02/13 08:26:19;;;;;;;;;;;22.40;99.90;;;;;;5073761;28;19952;-68
2023/02/13 08:28:45;;;;;;;;;;;22.40;99.90;;;;;;5076335;28;20149;-61
2023/02/13 08:31:12;;;;;;;;;;;22.40;99.90;;;;;;5079528;28;19937;-70
2023/02/13 08:33:41;;;;;;;;;;;22.30;99.90;;;;;;5072644;28;20007;-69
2023/02/13 08:36:07;;;;;;;;;;;22.20;99.90;;;;;;5075043;28;20353;-64
2023/02/13 08:38:34;;;;;;;;;;;22.20;99.90;;;;;;5075718;28;20253;-68
2023/02/13 08:41:00;;;;;;;;;;;22.10;99.90;;;;;;5080418;28;20529;-70
2023/02/13 08:43:26;;;;;;;;;;;22.10;99.90;;;;;;5071198;28;19939;-66
2023/02/13 08:45:53;;;;;;;;;;;22.00;99.90;;;;;;5075559;28;20288;-65
2023/02/13 08:48:19;;;;;;;;;;;22.10;99.90;;;;;;5073675;28;19916;-70
2023/02/13 08:50:45;;;;;;;;;;;22.00;99.90;;;;;;5067933;28;20357;-67
2023/02/13 08:53:12;;;;;;;;;;;21.90;99.90;;;;;;5074854;28;19952;-66
2023/02/13 08:55:38;;;;;;;;;;;21.90;99.90;;;;;;5068296;28;19927;-62
2023/02/13 08:58:05;;;;;;;;;;;21.90;99.90;;;;;;5071558;28;19913;-61
2023/02/13 09:00:31;;;;;;;;;;;22.00;99.90;;;;;;5071436;28;19916;-60
2023/02/13 09:03:04;;;;;;;;;;;22.00;99.90;;;;;;5074887;28;19977;-60
2023/02/13 09:05:31;;;;;;;;;;;22.00;99.90;;;;;;5073326;28;19928;-61
2023/02/13 09:08:02;;;;;;;;;;;21.90;99.90;;;;;;5079916;28;20287;-61
2023/02/13 09:10:29;;;;;;;;;;;21.90;99.90;;;;;;5070065;28;19923;-68
2023/02/13 09:12:56;;;;;;;;;;;21.90;99.90;;;;;;5075591;28;20303;-67
2023/02/13 09:15:22;;;;;;;;;;;21.90;99.90;;;;;;5074952;28;19919;-69
2023/02/13 09:17:49;;;;;;;;;;;21.80;99.90;;;;;;5074914;28;20310;-67
2023/02/13 09:20:15;;;;;;;;;;;21.70;99.90;;;;;;5049460;28;20368;-60
2023/02/13 09:22:41;;;;;;;;;;;21.70;99.90;;;;;;5072136;28;19912;-60
2023/02/13 09:25:08;;;;;;;;;;;21.70;99.90;;;;;;5078230;28;19916;-62
2023/02/13 09:27:36;;;;;;;;;;;21.80;99.90;;;;;;5075732;28;19929;-67
2023/02/13 09:30:02;;;;;;;;;;;21.80;99.90;;;;;;5070768;28;19916;-68
2023/02/13 09:32:28;;;;;;;;;;;21.80;99.90;;;;;;5067426;28;20031;-68
2023/02/13 09:34:55;;;;;;;;;;;21.80;99.90;;;;;;5067893;28;20158;-68
2023/02/13 09:37:22;;;;;;;;;;;21.80;99.90;;;;;;5072095;28;19959;-60
2023/02/13 09:39:48;;;;;;;;;;;21.70;99.90;;;;;;5072532;28;19916;-59
2023/02/13 09:42:17;;;;;;;;;;;21.60;99.90;;;;;;5071026;28;19919;-68
2023/02/13 09:44:45;;;;;;;;;;;21.60;99.90;;;;;;5074541;28;19959;-69
2023/02/13 09:47:17;;;;;;;;;;;21.60;99.90;;;;;;5074507;28;20387;-60
2023/02/13 09:50:04;;;;;;;;;;;21.50;99.90;;;;;;5078398;28;19912;-69
2023/02/13 09:52:35;;;;;;;;;;;21.50;99.90;;;;;;4995249;28;19913;-60
2023/02/13 09:55:02;;;;;;;;;;;21.50;99.90;;;;;;4995797;28;20478;-60
2023/02/13 09:57:39;;;;;;;;;;;21.50;99.90;;;;;;4999791;28;19913;-59
2023/02/13 10:00:25;;;;;;;;;;;21.50;99.90;;;;;;5051516;22;20371;-67
2023/02/13 10:02:58;;;;;;;;;;;21.50;99.90;;;;;;5050714;28;20527;-65
2023/02/13 10:05:24;;;;;;;;;;;21.50;99.90;;;;;;5046853;28;20042;-61
2023/02/13 10:08:06;;;;;;;;;;;21.50;99.90;;;;;;5049928;28;20031;-66
2023/02/13 10:10:32;;;;;;;;;;;21.60;99.90;;;;;;5054675;28;19936;-59
2023/02/13 10:13:06;;;;;;;;;;;21.60;99.90;;;;;;5052414;28;20319;-59
2023/02/13 10:15:38;;;;;;;;;;;21.60;99.90;;;;;;5049973;28;19919;-60
2023/02/13 10:18:08;;;;;;;;;;;21.60;99.90;;;;;;5049154;28;19917;-69
2023/02/13 10:20:42;;;;;;;;;;;21.70;99.90;;;;;;5051728;28;19943;-69
2023/02/13 10:23:14;;;;;;;;;;;21.70;99.90;;;;;;5050343;28;20015;-69
2023/02/13 10:25:48;;;;;;;;;;;21.80;99.90;;;;;;5048929;28;19997;-61
2023/02/13 10:28:16;;;;;;;;;;;21.70;99.90;;;;;;5044144;28;20114;-60
2023/02/13 10:30:51;;;;;;;;;;;21.70;99.90;;;;;;5053123;28;20331;-60
2023/02/13 10:33:20;;;;;;;;;;;21.70;99.90;;;;;;5043174;28;20341;-70
2023/02/13 10:36:07;;;;;;;;;;;21.70;99.90;;;;;;5046832;28;19909;-60
2023/02/13 10:38:35;;;;;;;;;;;21.60;99.90;;;;;;4982533;28;19914;-69
2023/02/13 10:41:20;;;;;;;;;;;21.60;99.90;;;;;;4982845;28;19914;-70
2023/02/13 10:43:49;;;;;;;;;;;21.60;99.90;;;;;;4982025;28;19918;-70
2023/02/13 10:46:22;;;;;;;;;;;21.60;99.90;;;;;;4987817;28;19917;-61
2023/02/13 10:49:12;;;;;;;;;;;21.60;99.90;;;;;;4983006;28;19921;-66
2023/02/13 10:51:41;;;;;;;;;;;21.60;99.90;;;;;;4978146;28;19910;-66
2023/02/13 10:54:26;;;;;;;;;;;21.60;99.90;;;;;;4985222;28;20093;-70
2023/02/13 10:56:52;;;;;;;;;;;21.60;99.90;;;;;;4981807;28;19914;-60
2023/02/13 10:59:36;;;;;;;;;;;21.70;99.90;;;;;;4987138;28;20441;-61
2023/02/13 11:02:21;;;;;;;;;;;21.60;99.90;;;;;;4985841;28;19929;-60
2023/02/13 11:04:49;;;;;;;;;;;21.60;99.90;;;;;;4984205;28;19924;-72
2023/02/13 11:07:18;;;;;;;;;;;21.60;99.90;;;;;;4983084;28;20062;-61
2023/02/13 11:09:46;;;;;;;;;;;21.70;99.90;;;;;;4983638;28;19964;-67
2023/02/13 11:12:32;;;;;;;;;;;21.70;99.90;;;;;;4991053;28;19913;-61
2023/02/13 11:15:03;;;;;;;;;;;21.60;99.90;;;;;;4998279;28;19921;-70
2023/02/13 11:17:31;;;;;;;;;;;21.60;99.90;;;;;;5052662;28;19912;-66
2023/02/13 11:20:00;;;;;;;;;;;21.50;99.90;;;;;;5055594;28;19982;-60
2023/02/13 11:22:26;;;;;;;;;;;21.50;99.90;;;;;;5034454;28;20003;-69
2023/02/13 11:24:55;;;;;;;;;;;21.40;99.90;;;;;;5051398;28;19999;-71
2023/02/13 11:27:34;;;;;;;;;;;21.50;99.90;;;;;;5055029;28;19923;-60
2023/02/13 11:30:04;;;;;;;;;;;21.40;99.90;;;;;;5058905;28;19909;-70
2023/02/13 11:32:31;;;;;;;;;;;21.40;99.90;;;;;;5057865;28;20288;-70
2023/02/13 11:35:15;;;;;;;;;;;21.50;99.90;;;;;;5060594;28;20435;-69
2023/02/13 11:37:42;;;;;;;;;;;21.50;99.90;;;;;;5058646;28;20373;-69
2023/02/13 11:40:28;;;;;;;;;;;21.50;99.90;;;;;;5065946;28;19912;-59
2023/02/13 11:42:56;;;;;;;;;;;21.40;99.90;;;;;;5055988;28;20319;-60
2023/02/13 11:45:23;;;;;;;;;;;21.40;99.90;;;;;;5056361;28;19912;-70
2023/02/13 11:47:50;;;;;;;;;;;21.40;99.90;;;;;;5064729;28;19908;-69
2023/02/13 11:50:20;;;;;;;;;;;21.50;99.90;;;;;;5057343;28;19912;-70
2023/02/13 11:52:57;;;;;;;;;;;21.40;99.90;;;;;;5054966;28;19912;-60
2023/02/13 11:55:33;;;;;;;;;;;21.40;99.90;;;;;;5034449;28;19908;-60
2023/02/13 11:58:15;;;;;;;;;;;21.40;99.90;;;;;;5060007;28;19915;-66
2023/02/13 12:00:41;;;;;;;;;;;21.40;99.90;;;;;;5052023;28;20300;-60
2023/02/13 12:03:20;;;;;;;;;;;21.50;99.90;;;;;;5061134;28;19967;-60
2023/02/13 12:06:04;;;;;;;;;;;21.50;99.90;;;;;;5057141;28;20501;-59
2023/02/13 12:08:32;;;;;;;;;;;21.40;99.90;;;;;;5060425;28;19913;-67
2023/02/13 12:10:58;;;;;;;;;;;21.40;99.90;;;;;;5059966;28;20374;-68
2023/02/13 12:13:32;;;;;;;;;;;21.40;99.90;;;;;;5055582;28;20292;-60
2023/02/13 12:16:01;;;;;;;;;;;21.30;99.90;;;;;;5059423;28;20051;-60
2023/02/13 12:18:36;;;;;;;;;;;21.30;99.90;;;;;;5059831;28;19912;-60
2023/02/13 12:21:17;;;;;;;;;;;21.30;99.90;;;;;;5057395;28;20296;-66
2023/02/13 12:24:01;;;;;;;;;;;21.30;99.90;;;;;;5062934;28;20288;-59
2023/02/13 12:26:37;;;;;;;;;;;21.40;99.90;;;;;;5054292;28;19917;-59
2023/02/13 12:29:30;;;;;;;;;;;21.30;99.90;;;;;;5058226;28;19930;-65
2023/02/13 12:32:16;;;;;;;;;;;21.30;99.90;;;;;;4987660;28;19925;-59
2023/02/13 12:34:53;;;;;;;;;;;21.20;99.90;;;;;;4988168;28;20016;-60
2023/02/13 12:37:22;;;;;;;;;;;21.20;99.90;;;;;;4986108;28;20330;-67
2023/02/13 12:39:58;;;;;;;;;;;21.10;99.90;;;;;;4989388;28;19956;-60
2023/02/13 12:42:39;;;;;;;;;;;21.10;99.90;;;;;;4988697;28;20433;-68
2023/02/13 12:45:44;;;;;;;;;;;21.10;99.90;;;;;;4987273;28;19906;-59
2023/02/13 12:48:10;;;;;;;;;;;21.10;99.90;;;;;;4945975;28;19910;-59
2023/02/13 12:50:48;;;;;;;;;;;21.20;99.90;;;;;;4944253;28;20109;-59
2023/02/13 12:53:32;;;;;;;;;;;21.30;99.90;;;;;;4941151;28;19907;-60
2023/02/13 12:56:16;;;;;;;;;;;21.30;99.90;;;;;;4942077;28;20378;-69
2023/02/13 12:59:00;;;;;;;;;;;21.30;99.90;;;;;;4946335;28;19922;-69
2023/02/13 13:01:29;;;;;;;;;;;21.20;99.90;;;;;;4944166;28;20091;-65
2023/02/13 13:04:16;;;;;;;;;;;21.10;99.90;;;;;;4945642;28;20466;-59
2023/02/13 13:06:48;;;;;;;;;;;21.10;99.90;;;;;;4943243;28;19922;-66
2023/02/13 13:09:22;;;;;;;;;;;21.20;99.90;;;;;;4958499;28;19961;-66
2023/02/13 13:12:07;;;;;;;;;;;21.20;99.90;;;;;;4961463;28;20005;-68
2023/02/13 13:14:53;;;;;;;;;;;21.10;99.90;;;;;;4964863;28;19918;-60
2023/02/13 13:17:19;;;;;;;;;;;21.10;99.90;;;;;;4967753;28;19914;-60
2023/02/13 13:19:56;;;;;;;;;;;21.10;99.90;;;;;;5036538;28;19909;-67
2023/02/13 13:22:28;;;;;;;;;;;21.20;99.90;;;;;;5049922;28;19912;-66
2023/02/13 13:25:00;;;;;;;;;;;21.10;99.90;;;;;;5060479;28;19908;-69
2023/02/13 13:27:29;;;;;;;;;;;21.00;99.90;;;;;;5053768;28;20361;-67
2023/02/13 13:29:55;;;;;;;;;;;21.00;99.90;;;;;;5066553;28;19923;-66
2023/02/13 13:32:22;;;;;;;;;;;21.00;99.90;;;;;;5056245;28;19917;-60
2023/02/13 13:34:48;;;;;;;;;;;21.00;99.90;;;;;;5055269;28;19954;-59
2023/02/13 13:37:27;;;;;;;;;;;21.10;99.90;;;;;;5058327;28;19926;-59
2023/02/13 13:40:12;;;;;;;;;;;21.00;99.90;;;;;;5062735;28;19905;-61
2023/02/13 13:42:51;;;;;;;;;;;21.00;99.90;;;;;;5055635;28;20296;-67
2023/02/13 13:45:22;;;;;;;;;;;21.00;99.90;;;;;;5054768;28;19919;-66
2023/02/13 13:47:48;;;;;;;;;;;21.00;99.90;;;;;;5058988;28;19908;-60
2023/02/13 13:50:19;;;;;;;;;;;20.90;99.90;;;;;;5059899;28;19912;-68
2023/02/13 13:53:24;;;;;;;;;;;20.90;99.90;;;;;;5059082;28;20003;-60
2023/02/13 13:55:55;;;;;;;;;;;20.80;99.90;;;;;;4983677;28;20286;-60
2023/02/13 13:58:30;;;;;;;;;;;20.60;99.90;;;;;;4988819;28;19921;-60
2023/02/13 14:01:25;;;;;;;;;;;20.60;99.90;;;;;;4988966;28;19937;-66
2023/02/13 14:04:02;;;;;;;;;;;20.70;99.90;;;;;;4917464;29;20419;-67
2023/02/13 14:06:28;;;;;;;;;;;20.80;99.90;;;;;;4916273;29;20005;-68
2023/02/13 14:08:57;;;;;;;;;;;20.80;99.90;;;;;;4917301;29;19962;-60
2023/02/13 14:11:28;;;;;;;;;;;20.80;99.90;;;;;;4923348;29;20383;-66
2023/02/13 14:13:54;;;;;;;;;;;20.70;99.90;;;;;;4918478;29;20348;-66
2023/02/13 14:16:37;;;;;;;;;;;20.70;99.90;;;;;;4918395;29;19907;-60
2023/02/13 14:19:04;;;;;;;;;;;20.70;99.90;;;;;;4917817;29;20050;-69
2023/02/13 14:21:30;;;;;;;;;;;20.60;99.90;;;;;;4925706;29;19907;-60
2023/02/13 14:24:02;;;;;;;;;;;20.60;99.90;;;;;;4917141;29;20427;-60
2023/02/13 14:26:39;;;;;;;;;;;20.60;99.90;;;;;;4915786;29;19971;-60
2023/02/13 14:29:11;;;;;;;;;;;20.50;99.90;;;;;;4931125;28;19914;-60
2023/02/13 14:31:42;;;;;;;;;;;20.50;99.90;;;;;;4958671;28;20012;-60
2023/02/13 14:34:11;;;;;;;;;;;20.50;99.90;;;;;;4954985;28;19946;-59
2023/02/13 14:36:38;;;;;;;;;;;20.40;99.90;;;;;;4957410;28;20333;-60
2023/02/13 14:39:08;;;;;;;;;;;20.50;99.90;;;;;;4955867;28;19984;-67
2023/02/13 14:41:45;;;;;;;;;;;20.40;99.90;;;;;;5054570;28;19909;-68
2023/02/13 14:44:16;;;;;;;;;;;20.40;99.90;;;;;;5055057;28;19958;-66
2023/02/13 14:46:44;;;;;;;;;;;20.40;99.90;;;;;;5061553;28;19915;-60
2023/02/13 14:49:38;;;;;;;;;;;20.30;99.90;;;;;;5065151;28;19987;-68
2023/02/13 14:52:15;;;;;;;;;;;20.40;99.90;;;;;;5048141;28;19912;-67
2023/02/13 14:54:47;;;;;;;;;;;20.30;99.90;;;;;;5061533;28;20284;-59
2023/02/13 14:57:18;;;;;;;;;;;20.30;99.90;;;;;;5057789;28;19909;-60
2023/02/13 15:00:17;;;;;;;;;;;20.30;99.90;;;;;;5063152;28;20007;-60
2023/02/13 15:02:48;;;;;;;;;;;20.20;99.90;;;;;;4970526;28;19914;-68
2023/02/13 15:05:18;;;;;;;;;;;20.30;99.90;;;;;;4968160;28;19917;-60
2023/02/13 15:07:49;;;;;;;;;;;20.30;99.90;;;;;;4969367;28;20049;-68
2023/02/13 15:10:24;;;;;;;;;;;20.30;99.90;;;;;;4967930;28;20274;-60
2023/02/13 15:12:57;;;;;;;;;;;20.20;99.90;;;;;;4971713;28;19907;-66
2023/02/13 15:15:25;;;;;;;;;;;20.20;99.90;;;;;;4972199;28;19929;-66